Aviation Digital Data Service (ADDS)

Output produced by METARs form (1652 UTC 21 January 2018)
found at http://aviationweather.gov/adds/metars/
 
KJFK 211432Z 2115/2218 26006KT P6SM FEW250 
     FM212300 23005KT P6SM BKN040 
     FM220300 23004KT P6SM BKN025 
     FM220700 VRB03KT P6SM VCSH BKN012 BKN025 
     FM221200 16003KT 5SM -DZ BR BKN008 BKN025